createdAt,value
2022-08-11T00:00:48.509Z,15.30
2022-08-11T00:02:36.707Z,15.30
2022-08-11T00:04:12.289Z,15.20
2022-08-11T00:05:48.118Z,15.30
2022-08-11T00:07:20.922Z,15.20
2022-08-11T00:08:56.304Z,15.10
2022-08-11T00:10:31.953Z,15.10
2022-08-11T00:12:14.746Z,15.10
2022-08-11T00:13:51.421Z,15.10
2022-08-11T00:15:26.616Z,15.10
2022-08-11T00:17:03.709Z,15.00
2022-08-11T00:18:44.604Z,15.00
2022-08-11T00:20:19.788Z,15.00
2022-08-11T00:22:05.274Z,14.90
2022-08-11T00:23:46.485Z,14.90
2022-08-11T00:25:22.783Z,14.90
2022-08-11T00:26:56.914Z,14.90
2022-08-11T00:28:33.045Z,14.80
2022-08-11T00:30:09.371Z,14.80
2022-08-11T00:31:50.621Z,14.80
2022-08-11T00:33:44.249Z,14.80
2022-08-11T00:35:56.230Z,14.70
2022-08-11T00:37:23.738Z,14.70
2022-08-11T00:39:06.806Z,14.70
2022-08-11T00:40:51.936Z,14.70
2022-08-11T00:42:44.781Z,14.60
2022-08-11T00:44:43.253Z,14.60
2022-08-11T00:46:36.346Z,14.60
2022-08-11T00:48:27.737Z,14.60
2022-08-11T00:50:14.590Z,14.50
2022-08-11T00:52:14.538Z,14.50
2022-08-11T00:54:06.964Z,14.50
2022-08-11T00:57:37.046Z,14.40
2022-08-11T01:00:10.866Z,14.40
2022-08-11T01:02:20.076Z,14.40
2022-08-11T01:04:35.583Z,14.30
2022-08-11T01:06:50.681Z,14.30
2022-08-11T01:09:26.130Z,14.20
2022-08-11T01:11:55.474Z,14.20
2022-08-11T01:14:34.514Z,14.10
2022-08-11T01:16:50.833Z,14.10
2022-08-11T01:20:39.466Z,14.00
2022-08-11T01:22:51.802Z,14.00
2022-08-11T01:25:22.466Z,14.00
2022-08-11T01:27:26.646Z,13.90
2022-08-11T01:30:16.914Z,13.90
2022-08-11T01:32:41.474Z,13.90
2022-08-11T01:34:55.994Z,13.80
2022-08-11T01:37:05.887Z,13.80
2022-08-11T01:39:18.352Z,13.70
2022-08-11T01:41:51.431Z,13.70
2022-08-11T01:44:39.015Z,13.70
2022-08-11T01:46:19.434Z,13.60
2022-08-11T01:48:06.857Z,13.70
2022-08-11T01:50:08.854Z,13.60
2022-08-11T01:52:07.193Z,13.50
2022-08-11T01:53:55.443Z,13.60
2022-08-11T01:55:42.280Z,13.50
2022-08-11T01:57:32.799Z,13.50
2022-08-11T01:59:18.049Z,13.40
2022-08-11T02:01:15.291Z,13.40
2022-08-11T02:03:01.753Z,13.40
2022-08-11T02:04:47.135Z,13.40
2022-08-11T02:06:54.637Z,13.30
2022-08-11T02:08:50.519Z,13.30
2022-08-11T02:10:53.096Z,13.30
2022-08-11T02:12:51.203Z,13.30
2022-08-11T02:14:35.351Z,13.30
2022-08-11T02:16:27.821Z,13.20
2022-08-11T02:18:11.545Z,13.20
2022-08-11T02:20:15.392Z,13.20
2022-08-11T02:22:21.221Z,13.10
2022-08-11T02:24:07.876Z,13.20
2022-08-11T02:25:54.933Z,13.10
2022-08-11T02:27:42.550Z,13.10
2022-08-11T02:29:26.090Z,13.10
2022-08-11T02:32:17.162Z,13.00
2022-08-11T02:33:34.480Z,13.00
2022-08-11T02:35:24.051Z,13.00
2022-08-11T02:37:16.347Z,13.00
2022-08-11T02:39:07.969Z,12.90
2022-08-11T02:40:53.950Z,12.90
2022-08-11T02:42:42.235Z,12.90
2022-08-11T02:44:32.257Z,12.80
2022-08-11T02:46:24.459Z,12.90
2022-08-11T02:48:31.605Z,12.90
2022-08-11T02:50:20.187Z,12.80
2022-08-11T02:52:15.389Z,12.80
2022-08-11T02:54:07.802Z,12.70
2022-08-11T02:56:03.922Z,12.70
2022-08-11T02:57:48.572Z,12.70
2022-08-11T03:00:21.367Z,12.60
2022-08-11T03:02:08.467Z,12.60
2022-08-11T03:03:54.595Z,12.60
2022-08-11T03:05:50.441Z,12.50
2022-08-11T03:07:35.757Z,12.60
2022-08-11T03:09:24.577Z,12.50
2022-08-11T03:11:26.112Z,12.50
2022-08-11T03:13:30.029Z,12.40
2022-08-11T03:15:30.447Z,12.50
2022-08-11T03:17:22.720Z,12.40
2022-08-11T03:19:12.540Z,12.40
2022-08-11T03:20:59.189Z,12.30
2022-08-11T03:22:49.682Z,12.30
2022-08-11T03:24:30.373Z,12.30
2022-08-11T03:26:14.962Z,12.20
2022-08-11T03:27:59.138Z,12.30
2022-08-11T03:29:46.124Z,12.20
2022-08-11T03:31:28.471Z,12.20
2022-08-11T03:33:43.198Z,12.20
2022-08-11T03:35:21.518Z,12.10
2022-08-11T03:37:45.251Z,12.10
2022-08-11T03:39:34.143Z,12.10
2022-08-11T03:42:02.302Z,12.10
2022-08-11T03:43:58.768Z,12.10
2022-08-11T03:45:49.123Z,12.00
2022-08-11T03:47:54.995Z,12.00
2022-08-11T03:49:49.098Z,12.00
2022-08-11T03:51:51.808Z,12.00
2022-08-11T03:53:56.497Z,12.00
2022-08-11T03:56:21.176Z,12.00
2022-08-11T03:58:48.420Z,12.00
2022-08-11T04:01:18.186Z,11.90
2022-08-11T04:03:54.239Z,11.90
2022-08-11T04:06:28.528Z,11.90
2022-08-11T04:08:49.985Z,11.90
2022-08-11T04:11:09.824Z,11.90
2022-08-11T04:13:29.787Z,11.80
2022-08-11T04:15:46.453Z,11.80
2022-08-11T04:18:20.751Z,11.80
2022-08-11T04:20:52.597Z,11.70
2022-08-11T04:24:36.727Z,11.70
2022-08-11T04:25:58.384Z,11.70
2022-08-11T04:28:31.340Z,11.70
2022-08-11T04:30:14.743Z,11.70
2022-08-11T04:32:09.393Z,11.70
2022-08-11T04:34:27.176Z,11.60
2022-08-11T04:36:50.189Z,11.60
2022-08-11T04:39:12.190Z,11.60
2022-08-11T04:41:26.843Z,11.60
2022-08-11T04:44:08.002Z,11.60
2022-08-11T04:46:02.595Z,11.50
2022-08-11T04:48:13.650Z,11.50
2022-08-11T04:50:20.374Z,11.50
2022-08-11T04:52:42.092Z,11.50
2022-08-11T04:54:50.458Z,11.50
2022-08-11T04:56:44.977Z,11.40
2022-08-11T04:58:51.146Z,11.40
2022-08-11T05:00:51.627Z,11.40
2022-08-11T05:03:27.542Z,11.40
2022-08-11T05:05:31.153Z,11.40
2022-08-11T05:08:12.346Z,11.40
2022-08-11T05:10:20.013Z,11.40
2022-08-11T05:12:36.993Z,11.40
2022-08-11T05:14:51.964Z,11.40
2022-08-11T05:16:51.483Z,11.40
2022-08-11T05:18:47.578Z,11.40
2022-08-11T05:20:43.733Z,11.40
2022-08-11T05:22:40.332Z,11.40
2022-08-11T05:24:40.428Z,11.40
2022-08-11T05:26:47.815Z,11.40
2022-08-11T05:28:53.143Z,11.50
2022-08-11T05:30:49.481Z,11.40
2022-08-11T05:32:44.100Z,11.40
2022-08-11T05:34:42.336Z,11.40
2022-08-11T05:36:27.451Z,11.40
2022-08-11T05:38:19.449Z,11.40
2022-08-11T05:40:16.124Z,11.50
2022-08-11T05:42:09.144Z,11.50
2022-08-11T05:44:22.865Z,11.50
2022-08-11T05:46:20.171Z,11.50
2022-08-11T05:48:12.075Z,11.60
2022-08-11T05:50:13.524Z,11.60
2022-08-11T05:52:12.937Z,11.60
2022-08-11T05:54:28.580Z,11.70
2022-08-11T05:56:20.364Z,11.70
2022-08-11T05:57:59.323Z,11.70
2022-08-11T05:59:34.587Z,11.80
2022-08-11T06:01:10.459Z,11.90
2022-08-11T06:02:45.404Z,11.80
2022-08-11T06:04:25.041Z,11.90
2022-08-11T06:06:00.307Z,12.00
2022-08-11T06:07:49.220Z,12.00
2022-08-11T06:09:28.001Z,12.10
2022-08-11T06:11:05.172Z,12.10
2022-08-11T06:12:40.825Z,12.20
2022-08-11T06:14:15.557Z,12.20
2022-08-11T06:15:52.963Z,12.30
2022-08-11T06:17:38.508Z,12.40
2022-08-11T06:19:12.580Z,12.40
2022-08-11T06:20:49.478Z,12.50
2022-08-11T06:22:23.820Z,12.60
2022-08-11T06:24:00.614Z,12.70
2022-08-11T06:25:36.670Z,12.80
2022-08-11T06:27:13.078Z,12.80
2022-08-11T06:28:49.328Z,12.90
2022-08-11T06:30:39.667Z,13.00
2022-08-11T06:32:15.609Z,13.10
2022-08-11T06:34:10.380Z,13.20
2022-08-11T06:35:58.394Z,13.30
2022-08-11T06:37:48.528Z,13.40
2022-08-11T06:39:30.112Z,13.50
2022-08-11T06:41:34.270Z,13.50
2022-08-11T06:43:20.236Z,13.60
2022-08-11T06:45:08.291Z,13.70
2022-08-11T06:46:44.373Z,13.80
2022-08-11T06:48:23.169Z,14.00
2022-08-11T06:50:19.354Z,14.00
2022-08-11T06:51:51.996Z,14.10
2022-08-11T06:53:25.797Z,14.20
2022-08-11T06:55:11.358Z,14.30
2022-08-11T06:57:31.040Z,14.40
2022-08-11T06:59:22.579Z,14.40
2022-08-11T07:01:01.645Z,14.50
2022-08-11T07:02:44.220Z,14.70
2022-08-11T07:04:30.350Z,14.80
2022-08-11T07:06:24.193Z,14.90
2022-08-11T07:09:23.405Z,15.00
2022-08-11T07:11:46.163Z,15.10
2022-08-11T07:13:45.655Z,15.30
2022-08-11T07:16:10.741Z,15.40
2022-08-11T07:17:39.340Z,15.50
2022-08-11T07:19:36.418Z,15.60
2022-08-11T07:22:00.132Z,15.70
2022-08-11T07:24:02.964Z,15.90
2022-08-11T07:25:59.863Z,15.90
2022-08-11T07:28:01.487Z,16.10
2022-08-11T07:29:39.066Z,16.20
2022-08-11T07:31:17.926Z,16.30
2022-08-11T07:32:56.142Z,16.40
2022-08-11T07:34:37.268Z,16.50
2022-08-11T07:36:15.581Z,16.70
2022-08-11T07:38:02.125Z,16.80
2022-08-11T07:39:40.024Z,16.90
2022-08-11T07:41:17.265Z,17.00
2022-08-11T07:42:52.471Z,17.10
2022-08-11T07:44:34.724Z,17.20
2022-08-11T07:46:28.763Z,17.40
2022-08-11T07:48:21.638Z,17.50
2022-08-11T07:50:14.210Z,17.60
2022-08-11T07:52:08.740Z,17.80
2022-08-11T07:53:58.712Z,17.90
2022-08-11T07:55:51.058Z,18.10
2022-08-11T07:58:13.685Z,18.20
2022-08-11T08:00:04.087Z,18.40
2022-08-11T08:02:26.454Z,18.60
2022-08-11T08:04:20.656Z,18.80
2022-08-11T08:06:28.549Z,19.00
2022-08-11T08:08:27.295Z,19.10
2022-08-11T08:10:19.019Z,19.40
2022-08-11T08:12:11.203Z,19.60
2022-08-11T08:14:02.786Z,19.80
2022-08-11T08:15:55.047Z,19.90
2022-08-11T08:18:08.949Z,20.10
2022-08-11T08:19:44.835Z,20.30
2022-08-11T08:21:18.642Z,20.60
2022-08-11T08:22:56.957Z,20.70
2022-08-11T08:24:32.738Z,20.90
2022-08-11T08:26:30.020Z,21.10
2022-08-11T08:28:08.291Z,21.20
2022-08-11T08:30:01.911Z,21.40
2022-08-11T08:31:35.721Z,21.60
2022-08-11T08:33:13.181Z,21.80
2022-08-11T08:34:47.954Z,22.00
2022-08-11T08:36:25.392Z,22.10
2022-08-11T08:38:00.789Z,22.30
2022-08-11T08:39:37.634Z,22.40
2022-08-11T08:41:16.409Z,22.60
2022-08-11T08:42:56.120Z,22.70
2022-08-11T08:44:39.259Z,22.90
2022-08-11T08:46:16.547Z,23.00
2022-08-11T08:47:58.671Z,23.20
2022-08-11T08:49:40.644Z,23.40
2022-08-11T08:51:33.639Z,23.50
2022-08-11T08:53:33.126Z,23.60
2022-08-11T08:55:10.238Z,23.80
2022-08-11T08:56:46.618Z,24.00
2022-08-11T08:58:24.989Z,24.10
2022-08-11T09:00:00.605Z,24.20
2022-08-11T09:01:42.259Z,24.30
2022-08-11T09:03:41.818Z,24.40
2022-08-11T09:05:12.895Z,24.50
2022-08-11T09:06:48.770Z,24.60
2022-08-11T09:08:27.490Z,24.70
2022-08-11T09:10:01.495Z,24.80
2022-08-11T09:11:54.243Z,24.90
2022-08-11T09:13:28.991Z,25.00
2022-08-11T09:15:09.960Z,25.10
2022-08-11T09:16:44.943Z,25.20
2022-08-11T09:18:29.306Z,25.30
2022-08-11T09:20:09.450Z,25.40
2022-08-11T09:22:11.769Z,25.50
2022-08-11T09:24:11.275Z,25.60
2022-08-11T09:26:09.541Z,25.60
2022-08-11T09:27:50.220Z,25.70
2022-08-11T09:29:25.080Z,25.80
2022-08-11T09:31:02.056Z,25.90
2022-08-11T09:32:37.303Z,26.00
2022-08-11T09:34:11.989Z,26.10
2022-08-11T09:35:48.336Z,26.10
2022-08-11T09:37:54.760Z,26.20
2022-08-11T09:39:49.065Z,26.30
2022-08-11T09:41:25.548Z,26.40
2022-08-11T09:43:19.832Z,26.50
2022-08-11T09:44:54.541Z,26.50
2022-08-11T09:46:30.935Z,26.60
2022-08-11T09:48:07.071Z,26.70
2022-08-11T09:49:42.913Z,26.70
2022-08-11T09:51:18.694Z,26.70
2022-08-11T09:53:34.934Z,26.80
2022-08-11T09:54:50.344Z,26.90
2022-08-11T09:56:44.141Z,26.90
2022-08-11T09:58:41.601Z,27.00
2022-08-11T10:00:15.852Z,27.00
2022-08-11T10:01:57.158Z,27.10
2022-08-11T10:03:40.279Z,27.10
2022-08-11T10:05:37.093Z,27.20
2022-08-11T10:07:14.500Z,27.20
2022-08-11T10:08:54.111Z,27.30
2022-08-11T10:10:28.533Z,27.30
2022-08-11T10:12:04.778Z,27.40
2022-08-11T10:14:33.682Z,27.50
2022-08-11T10:16:15.908Z,27.50
2022-08-11T10:18:14.778Z,27.60
2022-08-11T10:20:05.397Z,27.70
2022-08-11T10:22:10.102Z,27.70
2022-08-11T10:24:05.989Z,27.80
2022-08-11T10:26:17.405Z,27.90
2022-08-11T10:28:30.404Z,27.90
2022-08-11T10:30:20.293Z,28.00
2022-08-11T10:32:21.707Z,28.00
2022-08-11T10:34:04.836Z,28.10
2022-08-11T10:35:39.592Z,28.10
2022-08-11T10:37:15.707Z,28.20
2022-08-11T10:38:52.230Z,28.20
2022-08-11T10:40:26.807Z,28.20
2022-08-11T10:42:41.476Z,28.30
2022-08-11T10:44:16.055Z,28.30
2022-08-11T10:46:07.441Z,28.40
2022-08-11T10:47:47.742Z,28.40
2022-08-11T10:49:24.535Z,28.50
2022-08-11T10:51:14.081Z,28.50
2022-08-11T10:53:09.007Z,28.50
2022-08-11T10:55:01.295Z,28.60
2022-08-11T10:56:57.941Z,28.70
2022-08-11T10:58:49.168Z,28.70
2022-08-11T11:00:24.215Z,28.80
2022-08-11T11:02:01.970Z,28.90
2022-08-11T11:03:37.787Z,28.90
2022-08-11T11:05:17.818Z,29.00
2022-08-11T11:07:00.350Z,29.10
2022-08-11T11:08:58.792Z,29.10
2022-08-11T11:10:34.275Z,29.10
2022-08-11T11:12:32.559Z,29.10
2022-08-11T11:14:24.157Z,29.20
2022-08-11T11:16:19.023Z,29.30
2022-08-11T11:17:57.603Z,29.30
2022-08-11T11:19:32.012Z,29.40
2022-08-11T11:21:09.692Z,29.40
2022-08-11T11:22:48.039Z,29.40
2022-08-11T11:24:43.419Z,29.40
2022-08-11T11:26:42.008Z,29.50
2022-08-11T11:28:35.310Z,29.60
2022-08-11T11:30:12.339Z,29.60
2022-08-11T11:32:00.217Z,29.70
2022-08-11T11:34:12.226Z,29.80
2022-08-11T11:36:06.739Z,29.80
2022-08-11T11:38:03.439Z,29.90
2022-08-11T11:39:39.541Z,30.00
2022-08-11T11:41:26.280Z,30.00
2022-08-11T11:43:02.469Z,30.10
2022-08-11T11:44:38.827Z,30.10
2022-08-11T11:46:13.799Z,30.20
2022-08-11T11:47:52.358Z,30.20
2022-08-11T11:49:32.521Z,30.30
2022-08-11T11:51:07.302Z,30.30
2022-08-11T11:52:42.089Z,30.30
2022-08-11T11:54:17.212Z,30.40
2022-08-11T11:55:53.799Z,30.40
2022-08-11T11:57:59.359Z,30.40
2022-08-11T11:59:53.759Z,30.40
2022-08-11T12:01:28.593Z,30.50
2022-08-11T12:03:05.877Z,30.50
2022-08-11T12:04:45.215Z,30.50
2022-08-11T12:06:22.152Z,30.50
2022-08-11T12:08:15.201Z,30.50
2022-08-11T12:09:50.247Z,30.50
2022-08-11T12:11:46.422Z,30.50
2022-08-11T12:13:37.766Z,30.60
2022-08-11T12:15:12.996Z,30.60
2022-08-11T12:16:48.958Z,30.70
2022-08-11T12:18:22.813Z,30.70
2022-08-11T12:19:57.261Z,30.70
2022-08-11T12:21:32.243Z,30.70
2022-08-11T12:23:24.823Z,30.70
2022-08-11T12:25:16.114Z,30.80
2022-08-11T12:27:15.966Z,30.80
2022-08-11T12:28:51.994Z,30.90
2022-08-11T12:30:26.451Z,30.90
2022-08-11T12:32:00.484Z,30.90
2022-08-11T12:33:35.142Z,31.00
2022-08-11T12:35:11.669Z,31.00
2022-08-11T12:36:56.089Z,31.10
2022-08-11T12:38:30.695Z,31.10
2022-08-11T12:40:43.181Z,31.20
2022-08-11T12:42:41.964Z,31.20
2022-08-11T12:44:37.022Z,31.20
2022-08-11T12:46:20.470Z,31.30
2022-08-11T12:48:59.589Z,31.30
2022-08-11T12:50:26.361Z,31.30
2022-08-11T12:52:14.954Z,31.30
2022-08-11T12:53:58.627Z,31.40
2022-08-11T12:56:03.966Z,31.40
2022-08-11T12:58:03.660Z,31.50
2022-08-11T12:59:55.988Z,31.50
2022-08-11T13:01:47.663Z,31.50
2022-08-11T13:03:40.747Z,31.50
2022-08-11T13:05:16.920Z,31.50
2022-08-11T13:06:51.612Z,31.50
2022-08-11T13:08:27.763Z,31.50
2022-08-11T13:10:05.138Z,31.50
2022-08-11T13:11:58.864Z,31.50
2022-08-11T13:13:54.134Z,31.50
2022-08-11T13:15:27.759Z,31.50
2022-08-11T13:17:19.609Z,31.50
2022-08-11T13:18:54.212Z,31.50
2022-08-11T13:20:29.019Z,31.50
2022-08-11T13:22:05.242Z,31.60
2022-08-11T13:23:41.418Z,31.60
2022-08-11T13:25:35.347Z,31.60
2022-08-11T13:27:12.466Z,31.60
2022-08-11T13:28:47.459Z,31.70
2022-08-11T13:30:46.735Z,31.70
2022-08-11T13:32:26.223Z,31.70
2022-08-11T13:34:01.741Z,31.70
2022-08-11T13:35:36.654Z,31.70
2022-08-11T13:37:14.478Z,31.70
2022-08-11T13:38:50.969Z,31.70
2022-08-11T13:40:33.281Z,31.70
2022-08-11T13:42:22.250Z,31.70
2022-08-11T13:43:58.327Z,31.70
2022-08-11T13:45:31.886Z,31.70
2022-08-11T13:47:08.829Z,31.80
2022-08-11T13:48:43.211Z,31.80
2022-08-11T13:50:18.531Z,31.80
2022-08-11T13:51:53.027Z,31.80
2022-08-11T13:53:30.384Z,31.80
2022-08-11T13:55:04.698Z,31.80
2022-08-11T13:56:43.387Z,31.80
2022-08-11T13:58:40.142Z,31.90
2022-08-11T14:00:24.948Z,31.90
2022-08-11T14:02:28.828Z,31.90
2022-08-11T14:04:29.002Z,31.90
2022-08-11T14:06:08.332Z,31.90
2022-08-11T14:07:50.679Z,32.00
2022-08-11T14:09:28.617Z,32.00
2022-08-11T14:12:23.868Z,32.00
2022-08-11T14:13:42.266Z,32.10
2022-08-11T14:15:28.718Z,32.10
2022-08-11T14:17:09.798Z,32.20
2022-08-11T14:18:48.539Z,32.20
2022-08-11T14:20:38.441Z,32.30
2022-08-11T14:22:16.313Z,32.30
2022-08-11T14:23:55.070Z,32.40
2022-08-11T14:26:00.493Z,32.40
2022-08-11T14:28:29.586Z,32.50
2022-08-11T14:29:28.099Z,32.50
2022-08-11T14:31:05.185Z,32.60
2022-08-11T14:32:45.487Z,32.60
2022-08-11T14:34:30.343Z,32.70
2022-08-11T14:36:06.014Z,32.70
2022-08-11T14:37:41.003Z,32.70
2022-08-11T14:39:19.273Z,32.70
2022-08-11T14:41:12.097Z,32.80
2022-08-11T14:43:03.168Z,32.70
2022-08-11T14:44:56.719Z,32.80
2022-08-11T14:46:51.326Z,32.80
2022-08-11T14:48:25.055Z,32.80
2022-08-11T14:50:10.253Z,32.80
2022-08-11T14:51:47.877Z,32.80
2022-08-11T14:53:24.394Z,32.80
2022-08-11T14:55:16.267Z,32.70
2022-08-11T14:56:49.103Z,32.70
2022-08-11T14:58:26.252Z,32.70
2022-08-11T15:00:03.844Z,32.70
2022-08-11T15:01:56.630Z,32.70
2022-08-11T15:03:34.514Z,32.70
2022-08-11T15:05:08.522Z,32.70
2022-08-11T15:06:42.942Z,32.80
2022-08-11T15:08:18.514Z,32.80
2022-08-11T15:12:03.118Z,32.90
2022-08-11T15:13:38.964Z,32.90
2022-08-11T15:15:31.426Z,32.90
2022-08-11T15:17:09.768Z,32.90
2022-08-11T15:18:43.341Z,33.00
2022-08-11T15:20:37.715Z,33.00
2022-08-11T15:22:29.396Z,33.10
2022-08-11T15:24:21.214Z,33.10
2022-08-11T15:25:59.684Z,33.10
2022-08-11T15:28:01.192Z,33.10
2022-08-11T15:29:56.355Z,33.10
2022-08-11T15:31:50.176Z,33.10
2022-08-11T15:33:46.806Z,33.10
2022-08-11T15:35:46.711Z,33.10
2022-08-11T15:37:27.165Z,33.10
2022-08-11T15:39:04.227Z,33.10
2022-08-11T15:41:04.727Z,33.10
2022-08-11T15:43:06.156Z,33.10
2022-08-11T15:45:17.362Z,33.00
2022-08-11T15:46:56.362Z,33.00
2022-08-11T15:48:46.362Z,33.00
2022-08-11T15:50:22.238Z,32.90
2022-08-11T15:52:04.437Z,32.90
2022-08-11T15:53:56.757Z,32.80
2022-08-11T15:55:33.852Z,32.80
2022-08-11T15:57:08.986Z,32.60
2022-08-11T15:59:10.728Z,32.60
2022-08-11T16:01:21.965Z,32.60
2022-08-11T16:03:16.940Z,32.50
2022-08-11T16:04:55.071Z,32.30
2022-08-11T16:06:29.489Z,32.20
2022-08-11T16:08:05.472Z,32.10
2022-08-11T16:09:51.910Z,32.10
2022-08-11T16:11:28.983Z,32.00
2022-08-11T16:13:24.115Z,31.80
2022-08-11T16:15:20.756Z,31.70
2022-08-11T16:16:58.004Z,31.50
2022-08-11T16:18:41.646Z,31.50
2022-08-11T16:20:21.462Z,31.40
2022-08-11T16:21:57.580Z,31.30
2022-08-11T16:23:31.087Z,31.20
2022-08-11T16:27:02.078Z,31.20
2022-08-11T16:27:13.463Z,31.10
2022-08-11T16:28:50.141Z,31.00
2022-08-11T16:30:28.073Z,30.90
2022-08-11T16:32:18.939Z,30.90
2022-08-11T16:33:55.270Z,30.80
2022-08-11T16:35:49.167Z,30.70
2022-08-11T16:37:42.183Z,30.70
2022-08-11T16:39:18.518Z,30.70
2022-08-11T16:40:55.426Z,30.60
2022-08-11T16:43:00.189Z,30.50
2022-08-11T16:44:58.182Z,30.50
2022-08-11T16:46:50.685Z,30.50
2022-08-11T16:48:35.830Z,30.30
2022-08-11T16:50:12.269Z,30.30
2022-08-11T16:51:48.695Z,30.30
2022-08-11T16:53:22.346Z,30.20
2022-08-11T16:55:52.208Z,30.10
2022-08-11T16:57:30.399Z,30.10
2022-08-11T16:59:18.086Z,30.00
2022-08-11T17:00:51.912Z,30.00
2022-08-11T17:02:51.741Z,30.00
2022-08-11T17:05:02.115Z,29.90
2022-08-11T17:06:57.143Z,29.90
2022-08-11T17:08:56.934Z,29.90
2022-08-11T17:11:03.826Z,29.80
2022-08-11T17:13:00.231Z,29.80
2022-08-11T17:14:41.111Z,29.80
2022-08-11T17:16:20.775Z,29.70
2022-08-11T17:17:56.571Z,29.60
2022-08-11T17:20:40.172Z,29.60
2022-08-11T17:21:33.564Z,29.60
2022-08-11T17:23:40.970Z,29.50
2022-08-11T17:25:18.440Z,29.50
2022-08-11T17:26:56.875Z,29.30
2022-08-11T17:28:32.466Z,29.20
2022-08-11T17:30:08.607Z,29.20
2022-08-11T17:32:00.463Z,29.20
2022-08-11T17:33:54.050Z,29.10
2022-08-11T17:35:34.271Z,29.00
2022-08-11T17:37:10.634Z,29.00
2022-08-11T17:38:48.392Z,29.00
2022-08-11T17:40:26.044Z,28.90
2022-08-11T17:42:18.892Z,28.90
2022-08-11T17:44:12.510Z,28.90
2022-08-11T17:46:06.131Z,28.80
2022-08-11T17:48:00.542Z,28.80
2022-08-11T17:49:37.255Z,28.80
2022-08-11T17:51:35.854Z,28.70
2022-08-11T17:53:29.857Z,28.60
2022-08-11T17:55:50.959Z,28.60
2022-08-11T17:57:37.386Z,28.50
2022-08-11T17:59:32.479Z,28.50
2022-08-11T18:01:09.942Z,28.40
2022-08-11T18:03:03.727Z,28.30
2022-08-11T18:04:37.476Z,28.20
2022-08-11T18:06:15.343Z,28.20
2022-08-11T18:08:11.746Z,28.10
2022-08-11T18:10:03.039Z,28.10
2022-08-11T18:12:10.007Z,28.00
2022-08-11T18:14:08.467Z,27.90
2022-08-11T18:16:03.507Z,27.80
2022-08-11T18:17:55.819Z,27.80
2022-08-11T18:19:46.951Z,27.70
2022-08-11T18:21:39.411Z,27.60
2022-08-11T18:23:41.899Z,27.60
2022-08-11T18:25:45.608Z,27.50
2022-08-11T18:27:41.326Z,27.40
2022-08-11T18:29:41.725Z,27.30
2022-08-11T18:31:36.686Z,27.30
2022-08-11T18:35:43.370Z,27.10
2022-08-11T18:37:38.407Z,27.10
2022-08-11T18:39:33.078Z,27.10
2022-08-11T18:41:28.502Z,27.00
2022-08-11T18:43:27.288Z,26.90
2022-08-11T18:45:31.263Z,26.90
2022-08-11T18:47:34.801Z,26.80
2022-08-11T18:50:03.985Z,26.80
2022-08-11T18:51:47.447Z,26.70
2022-08-11T18:53:41.011Z,26.60
2022-08-11T18:55:37.523Z,26.50
2022-08-11T18:57:32.919Z,26.50
2022-08-11T18:59:30.428Z,26.40
2022-08-11T19:01:26.691Z,26.30
2022-08-11T19:03:20.804Z,26.20
2022-08-11T19:05:15.124Z,26.10
2022-08-11T19:07:10.813Z,26.00
2022-08-11T19:09:10.677Z,25.90
2022-08-11T19:11:04.928Z,25.80
2022-08-11T19:13:01.150Z,25.70
2022-08-11T19:14:55.252Z,25.60
2022-08-11T19:16:50.719Z,25.50
2022-08-11T19:18:43.831Z,25.40
2022-08-11T19:20:44.240Z,25.30
2022-08-11T19:22:37.053Z,25.10
2022-08-11T19:24:29.656Z,25.00
2022-08-11T19:26:26.632Z,24.90
2022-08-11T19:28:23.765Z,24.80
2022-08-11T19:30:15.964Z,24.70
2022-08-11T19:32:09.460Z,24.60
2022-08-11T19:34:10.657Z,24.50
2022-08-11T19:36:04.708Z,24.40
2022-08-11T19:37:58.295Z,24.30
2022-08-11T19:39:50.837Z,24.20
2022-08-11T19:41:52.003Z,24.10
2022-08-11T19:43:51.551Z,24.00
2022-08-11T19:45:43.499Z,23.90
2022-08-11T19:47:43.231Z,23.80
2022-08-11T19:49:36.807Z,23.70
2022-08-11T19:51:29.708Z,23.60
2022-08-11T19:53:22.695Z,23.50
2022-08-11T19:55:15.934Z,23.40
2022-08-11T19:57:08.887Z,23.30
2022-08-11T19:59:01.700Z,23.20
2022-08-11T20:00:52.517Z,23.00
2022-08-11T20:02:44.755Z,23.00
2022-08-11T20:04:36.034Z,22.90
2022-08-11T20:06:29.255Z,22.80
2022-08-11T20:08:23.060Z,22.70
2022-08-11T20:10:17.101Z,22.70
2022-08-11T20:12:13.626Z,22.50
2022-08-11T20:14:12.187Z,22.40
2022-08-11T20:16:05.649Z,22.40
2022-08-11T20:17:59.651Z,22.20
2022-08-11T20:19:57.081Z,22.10
2022-08-11T20:21:49.590Z,22.00
2022-08-11T20:23:41.601Z,21.90
2022-08-11T20:25:36.571Z,21.90
2022-08-11T20:27:29.047Z,21.70
2022-08-11T20:29:21.129Z,21.70
2022-08-11T20:31:14.837Z,21.60
2022-08-11T20:33:09.593Z,21.50
2022-08-11T20:35:03.047Z,21.40
2022-08-11T20:36:57.704Z,21.30
2022-08-11T20:38:52.019Z,21.30
2022-08-11T20:40:44.870Z,21.10
2022-08-11T20:42:41.601Z,21.10
2022-08-11T20:44:34.362Z,21.00
2022-08-11T20:46:26.851Z,20.90
2022-08-11T20:48:23.435Z,20.90
2022-08-11T20:50:20.491Z,20.80
2022-08-11T20:52:12.109Z,20.70
2022-08-11T20:54:08.983Z,20.60
2022-08-11T20:56:06.696Z,20.50
2022-08-11T20:58:05.233Z,20.50
2022-08-11T20:59:57.842Z,20.40
2022-08-11T21:01:52.017Z,20.30
2022-08-11T21:03:52.340Z,20.30
2022-08-11T21:06:08.851Z,20.20
2022-08-11T21:08:08.610Z,20.10
2022-08-11T21:10:09.754Z,20.10
2022-08-11T21:12:06.101Z,20.00
2022-08-11T21:14:01.991Z,19.90
2022-08-11T21:16:01.441Z,19.90
2022-08-11T21:18:00.247Z,19.80
2022-08-11T21:20:10.821Z,19.70
2022-08-11T21:22:10.330Z,19.70
2022-08-11T21:24:03.686Z,19.60
2022-08-11T21:26:09.146Z,19.50
2022-08-11T21:28:02.892Z,19.40
2022-08-11T21:29:57.639Z,19.40
2022-08-11T21:31:52.636Z,19.30
2022-08-11T21:33:46.546Z,19.30
2022-08-11T21:35:41.067Z,19.20
2022-08-11T21:37:39.297Z,19.20
2022-08-11T21:39:39.162Z,19.10
2022-08-11T21:41:31.726Z,19.00
2022-08-11T21:43:26.278Z,19.00
2022-08-11T21:45:21.047Z,18.90
2022-08-11T21:47:17.409Z,18.90
2022-08-11T21:49:13.868Z,18.80
2022-08-11T21:51:08.435Z,18.70
2022-08-11T21:53:01.127Z,18.70
2022-08-11T21:54:52.131Z,18.60
2022-08-11T21:56:45.952Z,18.60
2022-08-11T21:58:37.575Z,18.50
2022-08-11T22:00:30.028Z,18.40
2022-08-11T22:02:21.624Z,18.40
2022-08-11T22:04:13.091Z,18.30
2022-08-11T22:06:04.451Z,18.30
2022-08-11T22:07:59.051Z,18.20
2022-08-11T22:09:51.372Z,18.20
2022-08-11T22:11:43.086Z,18.10
2022-08-11T22:13:34.937Z,18.10
2022-08-11T22:15:28.327Z,18.00
2022-08-11T22:17:19.111Z,18.00
2022-08-11T22:19:13.198Z,17.90
2022-08-11T22:21:08.063Z,17.80
2022-08-11T22:23:02.017Z,17.80
2022-08-11T22:24:56.558Z,17.70
2022-08-11T22:26:53.018Z,17.70
2022-08-11T22:28:44.468Z,17.60
2022-08-11T22:30:35.719Z,17.60
2022-08-11T22:32:30.078Z,17.50
2022-08-11T22:34:22.363Z,17.50
2022-08-11T22:36:14.827Z,17.40
2022-08-11T22:38:08.948Z,17.30
2022-08-11T22:40:02.349Z,17.30
2022-08-11T22:41:56.984Z,17.20
2022-08-11T22:43:48.371Z,17.20
2022-08-11T22:45:39.880Z,17.20
2022-08-11T22:47:38.462Z,17.10
2022-08-11T22:49:56.111Z,17.10
2022-08-11T22:51:45.932Z,17.00
2022-08-11T22:53:58.051Z,17.00
2022-08-11T22:55:50.163Z,16.90
2022-08-11T22:58:00.914Z,16.80
2022-08-11T22:59:54.890Z,16.80
2022-08-11T23:01:56.152Z,16.70
2022-08-11T23:03:50.232Z,16.70
2022-08-11T23:05:41.808Z,16.60
2022-08-11T23:07:50.171Z,16.60
2022-08-11T23:09:44.455Z,16.50
2022-08-11T23:11:57.685Z,16.50
2022-08-11T23:13:53.338Z,16.40
2022-08-11T23:15:45.381Z,16.40
2022-08-11T23:17:36.427Z,16.40
2022-08-11T23:20:06.485Z,16.30
2022-08-11T23:21:40.064Z,16.30
2022-08-11T23:23:32.522Z,16.30
2022-08-11T23:25:27.936Z,16.20
2022-08-11T23:27:24.366Z,16.20
2022-08-11T23:29:17.172Z,16.10
2022-08-11T23:31:18.575Z,16.10
2022-08-11T23:33:15.228Z,16.00
2022-08-11T23:35:38.516Z,16.00
2022-08-11T23:37:24.974Z,16.00
2022-08-11T23:39:17.574Z,15.90
2022-08-11T23:41:10.994Z,15.90
2022-08-11T23:43:02.087Z,15.90
2022-08-11T23:44:52.996Z,15.80
2022-08-11T23:46:46.131Z,15.80
2022-08-11T23:48:41.975Z,15.80
2022-08-11T23:50:32.922Z,15.70
2022-08-11T23:52:25.480Z,15.60
2022-08-11T23:54:18.606Z,15.60
2022-08-11T23:56:11.126Z,15.50
2022-08-11T23:58:02.992Z,15.50
2022-08-11T23:59:54.391Z,15.40
